<?xml version="1.0" encoding="UTF-8" standalone="no" ?>
<gpx xmlns="http://www.topografix.com/GPX/1/1" xmlns:xsi="http://www.w3.org/2001/XMLSchema-instance" xsi:schemaLocation="http://www.topografix.com/GPX/1/1 http://www.topografix.com/GPX/1/1/gpx.xsd" version="1.1" creator="VisuGPX - https://www.visugpx.com">
  <metadata>
    <name>vtt tour de la brasserie singletrack </name>
    <desc><![CDATA[balade au départ de la brasserie singletrack.]]></desc>
  </metadata>
  <trk>
    <name><![CDATA[ACTIVE LOG175217]]></name>
    <trkseg>
      <trkpt lat="45.83391" lon="4.89093">
        <ele>272.011</ele>
        <time>2011-10-22T15:52:17Z</time>
      </trkpt>
      <trkpt lat="45.83395" lon="4.89092">
        <ele>280.423</ele>
        <time>2011-10-22T15:52:46Z</time>
      </trkpt>
      <trkpt lat="45.83401" lon="4.89094">
        <ele>276.808</ele>
        <time>2011-10-22T15:53:00Z</time>
      </trkpt>
      <trkpt lat="45.83403" lon="4.89081">
        <ele>276.955</ele>
        <time>2011-10-22T15:53:13Z</time>
      </trkpt>
      <trkpt lat="45.83399" lon="4.8907">
        <ele>278.129</ele>
        <time>2011-10-22T15:53:24Z</time>
      </trkpt>
      <trkpt lat="45.83393" lon="4.89059">
        <ele>277.829</ele>
        <time>2011-10-22T15:53:37Z</time>
      </trkpt>
      <trkpt lat="45.83389" lon="4.89057">
        <ele>278.416</ele>
        <time>2011-10-22T15:53:51Z</time>
      </trkpt>
      <trkpt lat="45.83376" lon="4.89048">
        <ele>279.556</ele>
        <time>2011-10-22T15:53:59Z</time>
      </trkpt>
      <trkpt lat="45.8337" lon="4.89044">
        <ele>279.325</ele>
        <time>2011-10-22T15:54:10Z</time>
      </trkpt>
      <trkpt lat="45.83368" lon="4.89043">
        <ele>281.331</ele>
        <time>2011-10-22T15:55:09Z</time>
      </trkpt>
      <trkpt lat="45.83351" lon="4.89029">
        <ele>280.475</ele>
        <time>2011-10-22T15:55:19Z</time>
      </trkpt>
      <trkpt lat="45.83337" lon="4.89025">
        <ele>280.276</ele>
        <time>2011-10-22T15:55:23Z</time>
      </trkpt>
      <trkpt lat="45.83326" lon="4.89">
        <ele>275.801</ele>
        <time>2011-10-22T15:55:30Z</time>
      </trkpt>
      <trkpt lat="45.83316" lon="4.88978">
        <ele>273.89</ele>
        <time>2011-10-22T15:55:39Z</time>
      </trkpt>
      <trkpt lat="45.83307" lon="4.88971">
        <ele>273.518</ele>
        <time>2011-10-22T15:55:51Z</time>
      </trkpt>
      <trkpt lat="45.83307" lon="4.88973">
        <ele>273.967</ele>
        <time>2011-10-22T15:55:55Z</time>
      </trkpt>
      <trkpt lat="45.83303" lon="4.88985">
        <ele>274.753</ele>
        <time>2011-10-22T15:56:03Z</time>
      </trkpt>
      <trkpt lat="45.83298" lon="4.88999">
        <ele>274.124</ele>
        <time>2011-10-22T15:56:08Z</time>
      </trkpt>
      <trkpt lat="45.83285" lon="4.89005">
        <ele>273.99</ele>
        <time>2011-10-22T15:56:14Z</time>
      </trkpt>
      <trkpt lat="45.83275" lon="4.8901">
        <ele>272.631</ele>
        <time>2011-10-22T15:56:20Z</time>
      </trkpt>
      <trkpt lat="45.83269" lon="4.88999">
        <ele>270.951</ele>
        <time>2011-10-22T15:56:26Z</time>
      </trkpt>
      <trkpt lat="45.8327" lon="4.88992">
        <ele>270.473</ele>
        <time>2011-10-22T15:56:28Z</time>
      </trkpt>
      <trkpt lat="45.83256" lon="4.8898">
        <ele>270.51</ele>
        <time>2011-10-22T15:56:33Z</time>
      </trkpt>
      <trkpt lat="45.83247" lon="4.88979">
        <ele>268.552</ele>
        <time>2011-10-22T15:56:35Z</time>
      </trkpt>
      <trkpt lat="45.83221" lon="4.88981">
        <ele>265.682</ele>
        <time>2011-10-22T15:56:43Z</time>
      </trkpt>
      <trkpt lat="45.83214" lon="4.88982">
        <ele>265.396</ele>
        <time>2011-10-22T15:56:47Z</time>
      </trkpt>
      <trkpt lat="45.83206" lon="4.88981">
        <ele>265.172</ele>
        <time>2011-10-22T15:56:51Z</time>
      </trkpt>
      <trkpt lat="45.8319" lon="4.88967">
        <ele>265.549</ele>
        <time>2011-10-22T15:56:56Z</time>
      </trkpt>
      <trkpt lat="45.83176" lon="4.8896">
        <ele>265.501</ele>
        <time>2011-10-22T15:57:04Z</time>
      </trkpt>
      <trkpt lat="45.83153" lon="4.8895">
        <ele>266.585</ele>
        <time>2011-10-22T15:57:12Z</time>
      </trkpt>
      <trkpt lat="45.8314" lon="4.88953">
        <ele>265.794</ele>
        <time>2011-10-22T15:57:20Z</time>
      </trkpt>
      <trkpt lat="45.8314" lon="4.88952">
        <ele>264.951</ele>
        <time>2011-10-22T15:57:26Z</time>
      </trkpt>
      <trkpt lat="45.83118" lon="4.88957">
        <ele>265.91</ele>
        <time>2011-10-22T15:57:34Z</time>
      </trkpt>
      <trkpt lat="45.83097" lon="4.88931">
        <ele>265.328</ele>
        <time>2011-10-22T15:57:41Z</time>
      </trkpt>
      <trkpt lat="45.83094" lon="4.88922">
        <ele>265.303</ele>
        <time>2011-10-22T15:57:42Z</time>
      </trkpt>
      <trkpt lat="45.83072" lon="4.88885">
        <ele>264.073</ele>
        <time>2011-10-22T15:57:50Z</time>
      </trkpt>
      <trkpt lat="45.83064" lon="4.88878">
        <ele>264.53</ele>
        <time>2011-10-22T15:58:01Z</time>
      </trkpt>
      <trkpt lat="45.83064" lon="4.8886">
        <ele>264.678</ele>
        <time>2011-10-22T15:58:07Z</time>
      </trkpt>
      <trkpt lat="45.83054" lon="4.88837">
        <ele>263.46</ele>
        <time>2011-10-22T15:58:14Z</time>
      </trkpt>
      <trkpt lat="45.83049" lon="4.88835">
        <ele>263.281</ele>
        <time>2011-10-22T15:58:16Z</time>
      </trkpt>
      <trkpt lat="45.83032" lon="4.8883">
        <ele>266.336</ele>
        <time>2011-10-22T15:58:27Z</time>
      </trkpt>
      <trkpt lat="45.83028" lon="4.88827">
        <ele>269.85</ele>
        <time>2011-10-22T15:58:42Z</time>
      </trkpt>
      <trkpt lat="45.83022" lon="4.88831">
        <ele>270.429</ele>
        <time>2011-10-22T15:58:54Z</time>
      </trkpt>
      <trkpt lat="45.83011" lon="4.88842">
        <ele>270.767</ele>
        <time>2011-10-22T15:59:16Z</time>
      </trkpt>
      <trkpt lat="45.83004" lon="4.88847">
        <ele>271.053</ele>
        <time>2011-10-22T15:59:30Z</time>
      </trkpt>
      <trkpt lat="45.83001" lon="4.88848">
        <ele>271.944</ele>
        <time>2011-10-22T15:59:53Z</time>
      </trkpt>
      <trkpt lat="45.83012" lon="4.8885">
        <ele>274.669</ele>
        <time>2011-10-22T16:00:54Z</time>
      </trkpt>
      <trkpt lat="45.83011" lon="4.88853">
        <ele>273.759</ele>
        <time>2011-10-22T16:01:22Z</time>
      </trkpt>
      <trkpt lat="45.82991" lon="4.88835">
        <ele>274.05</ele>
        <time>2011-10-22T16:01:44Z</time>
      </trkpt>
      <trkpt lat="45.82985" lon="4.88831">
        <ele>274.251</ele>
        <time>2011-10-22T16:01:47Z</time>
      </trkpt>
      <trkpt lat="45.82975" lon="4.88821">
        <ele>274.756</ele>
        <time>2011-10-22T16:01:55Z</time>
      </trkpt>
      <trkpt lat="45.82964" lon="4.88815">
        <ele>275.29</ele>
        <time>2011-10-22T16:01:59Z</time>
      </trkpt>
      <trkpt lat="45.82948" lon="4.88816">
        <ele>275.228</ele>
        <time>2011-10-22T16:02:07Z</time>
      </trkpt>
      <trkpt lat="45.82933" lon="4.88815">
        <ele>274.045</ele>
        <time>2011-10-22T16:02:15Z</time>
      </trkpt>
      <trkpt lat="45.82927" lon="4.8881">
        <ele>273.439</ele>
        <time>2011-10-22T16:02:18Z</time>
      </trkpt>
      <trkpt lat="45.82919" lon="4.88806">
        <ele>273.059</ele>
        <time>2011-10-22T16:02:21Z</time>
      </trkpt>
      <trkpt lat="45.82915" lon="4.88801">
        <ele>272.363</ele>
        <time>2011-10-22T16:02:23Z</time>
      </trkpt>
      <trkpt lat="45.8289" lon="4.8879">
        <ele>271.182</ele>
        <time>2011-10-22T16:02:33Z</time>
      </trkpt>
      <trkpt lat="45.82877" lon="4.88787">
        <ele>271.922</ele>
        <time>2011-10-22T16:02:49Z</time>
      </trkpt>
      <trkpt lat="45.82872" lon="4.88787">
        <ele>272.294</ele>
        <time>2011-10-22T16:02:52Z</time>
      </trkpt>
      <trkpt lat="45.82863" lon="4.88774">
        <ele>271.977</ele>
        <time>2011-10-22T16:03:01Z</time>
      </trkpt>
      <trkpt lat="45.82856" lon="4.88756">
        <ele>271.304</ele>
        <time>2011-10-22T16:03:10Z</time>
      </trkpt>
      <trkpt lat="45.82841" lon="4.88723">
        <ele>271.185</ele>
        <time>2011-10-22T16:03:20Z</time>
      </trkpt>
      <trkpt lat="45.82825" lon="4.88704">
        <ele>267.422</ele>
        <time>2011-10-22T16:03:26Z</time>
      </trkpt>
      <trkpt lat="45.82805" lon="4.88699">
        <ele>265.487</ele>
        <time>2011-10-22T16:03:35Z</time>
      </trkpt>
      <trkpt lat="45.82788" lon="4.88688">
        <ele>263.681</ele>
        <time>2011-10-22T16:03:45Z</time>
      </trkpt>
      <trkpt lat="45.82776" lon="4.88697">
        <ele>261.876</ele>
        <time>2011-10-22T16:04:00Z</time>
      </trkpt>
      <trkpt lat="45.8277" lon="4.88691">
        <ele>260.852</ele>
        <time>2011-10-22T16:04:11Z</time>
      </trkpt>
      <trkpt lat="45.82766" lon="4.88686">
        <ele>261.757</ele>
        <time>2011-10-22T16:04:30Z</time>
      </trkpt>
      <trkpt lat="45.82761" lon="4.88682">
        <ele>261.409</ele>
        <time>2011-10-22T16:04:49Z</time>
      </trkpt>
      <trkpt lat="45.82752" lon="4.88686">
        <ele>262.655</ele>
        <time>2011-10-22T16:05:06Z</time>
      </trkpt>
      <trkpt lat="45.8275" lon="4.88687">
        <ele>263.032</ele>
        <time>2011-10-22T16:05:29Z</time>
      </trkpt>
      <trkpt lat="45.82733" lon="4.88688">
        <ele>263.333</ele>
        <time>2011-10-22T16:05:39Z</time>
      </trkpt>
      <trkpt lat="45.82726" lon="4.88687">
        <ele>264.109</ele>
        <time>2011-10-22T16:06:04Z</time>
      </trkpt>
      <trkpt lat="45.82721" lon="4.88688">
        <ele>264.67</ele>
        <time>2011-10-22T16:06:08Z</time>
      </trkpt>
      <trkpt lat="45.8271" lon="4.88688">
        <ele>264.392</ele>
        <time>2011-10-22T16:06:13Z</time>
      </trkpt>
      <trkpt lat="45.82681" lon="4.88683">
        <ele>264.321</ele>
        <time>2011-10-22T16:06:21Z</time>
      </trkpt>
      <trkpt lat="45.82668" lon="4.88683">
        <ele>264.923</ele>
        <time>2011-10-22T16:06:24Z</time>
      </trkpt>
      <trkpt lat="45.82629" lon="4.88696">
        <ele>267.441</ele>
        <time>2011-10-22T16:06:30Z</time>
      </trkpt>
      <trkpt lat="45.82617" lon="4.88685">
        <ele>269.365</ele>
        <time>2011-10-22T16:06:34Z</time>
      </trkpt>
      <trkpt lat="45.82604" lon="4.88678">
        <ele>270.38</ele>
        <time>2011-10-22T16:06:41Z</time>
      </trkpt>
      <trkpt lat="45.82604" lon="4.88678">
        <ele>271.934</ele>
        <time>2011-10-22T16:06:56Z</time>
      </trkpt>
      <trkpt lat="45.82585" lon="4.88663">
        <ele>271.732</ele>
        <time>2011-10-22T16:07:56Z</time>
      </trkpt>
      <trkpt lat="45.82561" lon="4.88624">
        <ele>269.336</ele>
        <time>2011-10-22T16:08:06Z</time>
      </trkpt>
      <trkpt lat="45.82542" lon="4.8859">
        <ele>265.826</ele>
        <time>2011-10-22T16:08:16Z</time>
      </trkpt>
      <trkpt lat="45.82536" lon="4.88568">
        <ele>266.372</ele>
        <time>2011-10-22T16:08:24Z</time>
      </trkpt>
      <trkpt lat="45.82531" lon="4.88536">
        <ele>269.679</ele>
        <time>2011-10-22T16:08:35Z</time>
      </trkpt>
      <trkpt lat="45.82526" lon="4.88522">
        <ele>269.942</ele>
        <time>2011-10-22T16:08:46Z</time>
      </trkpt>
      <trkpt lat="45.82526" lon="4.88522">
        <ele>269.251</ele>
        <time>2011-10-22T16:08:48Z</time>
      </trkpt>
      <trkpt lat="45.82522" lon="4.88505">
        <ele>268.533</ele>
        <time>2011-10-22T16:09:01Z</time>
      </trkpt>
      <trkpt lat="45.82522" lon="4.88505">
        <ele>268.527</ele>
        <time>2011-10-22T16:09:27Z</time>
      </trkpt>
      <trkpt lat="45.82527" lon="4.88503">
        <ele>268.592</ele>
        <time>2011-10-22T16:09:38Z</time>
      </trkpt>
      <trkpt lat="45.82545" lon="4.88497">
        <ele>267.183</ele>
        <time>2011-10-22T16:09:52Z</time>
      </trkpt>
      <trkpt lat="45.82564" lon="4.88491">
        <ele>266.404</ele>
        <time>2011-10-22T16:09:56Z</time>
      </trkpt>
      <trkpt lat="45.82618" lon="4.88448">
        <ele>264.915</ele>
        <time>2011-10-22T16:10:05Z</time>
      </trkpt>
      <trkpt lat="45.82631" lon="4.88382">
        <ele>260.577</ele>
        <time>2011-10-22T16:10:11Z</time>
      </trkpt>
      <trkpt lat="45.82642" lon="4.88342">
        <ele>258.411</ele>
        <time>2011-10-22T16:10:14Z</time>
      </trkpt>
      <trkpt lat="45.82667" lon="4.88298">
        <ele>255.39</ele>
        <time>2011-10-22T16:10:18Z</time>
      </trkpt>
      <trkpt lat="45.82666" lon="4.88238">
        <ele>252.624</ele>
        <time>2011-10-22T16:10:23Z</time>
      </trkpt>
      <trkpt lat="45.82647" lon="4.88227">
        <ele>250.909</ele>
        <time>2011-10-22T16:10:25Z</time>
      </trkpt>
      <trkpt lat="45.8262" lon="4.88214">
        <ele>249.888</ele>
        <time>2011-10-22T16:10:28Z</time>
      </trkpt>
      <trkpt lat="45.82586" lon="4.88202">
        <ele>246.911</ele>
        <time>2011-10-22T16:10:32Z</time>
      </trkpt>
      <trkpt lat="45.82552" lon="4.88179">
        <ele>243.245</ele>
        <time>2011-10-22T16:10:37Z</time>
      </trkpt>
      <trkpt lat="45.82555" lon="4.88156">
        <ele>242.726</ele>
        <time>2011-10-22T16:10:39Z</time>
      </trkpt>
      <trkpt lat="45.82553" lon="4.88098">
        <ele>238.849</ele>
        <time>2011-10-22T16:10:47Z</time>
      </trkpt>
      <trkpt lat="45.82547" lon="4.88073">
        <ele>238.313</ele>
        <time>2011-10-22T16:10:51Z</time>
      </trkpt>
      <trkpt lat="45.82546" lon="4.88055">
        <ele>237.417</ele>
        <time>2011-10-22T16:10:53Z</time>
      </trkpt>
      <trkpt lat="45.82563" lon="4.87999">
        <ele>236.341</ele>
        <time>2011-10-22T16:10:58Z</time>
      </trkpt>
      <trkpt lat="45.82584" lon="4.87966">
        <ele>234.978</ele>
        <time>2011-10-22T16:11:01Z</time>
      </trkpt>
      <trkpt lat="45.82638" lon="4.87892">
        <ele>231.935</ele>
        <time>2011-10-22T16:11:09Z</time>
      </trkpt>
      <trkpt lat="45.82672" lon="4.87859">
        <ele>229.973</ele>
        <time>2011-10-22T16:11:12Z</time>
      </trkpt>
      <trkpt lat="45.827" lon="4.87827">
        <ele>226.724</ele>
        <time>2011-10-22T16:11:18Z</time>
      </trkpt>
      <trkpt lat="45.8273" lon="4.87841">
        <ele>225.46</ele>
        <time>2011-10-22T16:11:23Z</time>
      </trkpt>
      <trkpt lat="45.82758" lon="4.87855">
        <ele>224.868</ele>
        <time>2011-10-22T16:11:29Z</time>
      </trkpt>
      <trkpt lat="45.82782" lon="4.87852">
        <ele>225.69</ele>
        <time>2011-10-22T16:11:33Z</time>
      </trkpt>
      <trkpt lat="45.82799" lon="4.87849">
        <ele>225.683</ele>
        <time>2011-10-22T16:11:36Z</time>
      </trkpt>
      <trkpt lat="45.82859" lon="4.87835">
        <ele>227.987</ele>
        <time>2011-10-22T16:11:45Z</time>
      </trkpt>
      <trkpt lat="45.82903" lon="4.87823">
        <ele>229.773</ele>
        <time>2011-10-22T16:11:50Z</time>
      </trkpt>
      <trkpt lat="45.82948" lon="4.87774">
        <ele>228.082</ele>
        <time>2011-10-22T16:11:56Z</time>
      </trkpt>
      <trkpt lat="45.82953" lon="4.87763">
        <ele>227.605</ele>
        <time>2011-10-22T16:11:57Z</time>
      </trkpt>
      <trkpt lat="45.82988" lon="4.8766">
        <ele>223.286</ele>
        <time>2011-10-22T16:12:05Z</time>
      </trkpt>
      <trkpt lat="45.82988" lon="4.87622">
        <ele>221.808</ele>
        <time>2011-10-22T16:12:08Z</time>
      </trkpt>
      <trkpt lat="45.8297" lon="4.87518">
        <ele>219.808</ele>
        <time>2011-10-22T16:12:17Z</time>
      </trkpt>
      <trkpt lat="45.82969" lon="4.87507">
        <ele>219.484</ele>
        <time>2011-10-22T16:12:18Z</time>
      </trkpt>
      <trkpt lat="45.82965" lon="4.87474">
        <ele>218.537</ele>
        <time>2011-10-22T16:12:21Z</time>
      </trkpt>
      <trkpt lat="45.82966" lon="4.87422">
        <ele>216.29</ele>
        <time>2011-10-22T16:12:27Z</time>
      </trkpt>
      <trkpt lat="45.82971" lon="4.87378">
        <ele>211.958</ele>
        <time>2011-10-22T16:12:31Z</time>
      </trkpt>
      <trkpt lat="45.83016" lon="4.87269">
        <ele>205.814</ele>
        <time>2011-10-22T16:12:41Z</time>
      </trkpt>
      <trkpt lat="45.83051" lon="4.87139">
        <ele>208.765</ele>
        <time>2011-10-22T16:12:52Z</time>
      </trkpt>
      <trkpt lat="45.83083" lon="4.87054">
        <ele>208.368</ele>
        <time>2011-10-22T16:13:00Z</time>
      </trkpt>
      <trkpt lat="45.83117" lon="4.86951">
        <ele>207.108</ele>
        <time>2011-10-22T16:13:11Z</time>
      </trkpt>
      <trkpt lat="45.83127" lon="4.86917">
        <ele>206.663</ele>
        <time>2011-10-22T16:13:15Z</time>
      </trkpt>
      <trkpt lat="45.83135" lon="4.86889">
        <ele>206.833</ele>
        <time>2011-10-22T16:13:19Z</time>
      </trkpt>
      <trkpt lat="45.8314" lon="4.86875">
        <ele>208.114</ele>
        <time>2011-10-22T16:13:22Z</time>
      </trkpt>
      <trkpt lat="45.83152" lon="4.86812">
        <ele>207.371</ele>
        <time>2011-10-22T16:13:30Z</time>
      </trkpt>
      <trkpt lat="45.83154" lon="4.86783">
        <ele>207.403</ele>
        <time>2011-10-22T16:13:33Z</time>
      </trkpt>
      <trkpt lat="45.83153" lon="4.86777">
        <ele>208.218</ele>
        <time>2011-10-22T16:13:37Z</time>
      </trkpt>
      <trkpt lat="45.83156" lon="4.86776">
        <ele>206.195</ele>
        <time>2011-10-22T16:13:40Z</time>
      </trkpt>
      <trkpt lat="45.83161" lon="4.86749">
        <ele>205.224</ele>
        <time>2011-10-22T16:13:45Z</time>
      </trkpt>
      <trkpt lat="45.83172" lon="4.867">
        <ele>204.086</ele>
        <time>2011-10-22T16:13:50Z</time>
      </trkpt>
      <trkpt lat="45.83176" lon="4.86636">
        <ele>202.554</ele>
        <time>2011-10-22T16:13:55Z</time>
      </trkpt>
      <trkpt lat="45.83179" lon="4.8658">
        <ele>202.056</ele>
        <time>2011-10-22T16:13:58Z</time>
      </trkpt>
      <trkpt lat="45.83179" lon="4.86553">
        <ele>203.937</ele>
        <time>2011-10-22T16:14:02Z</time>
      </trkpt>
      <trkpt lat="45.83179" lon="4.86553">
        <ele>202.552</ele>
        <time>2011-10-22T16:14:05Z</time>
      </trkpt>
      <trkpt lat="45.83185" lon="4.86527">
        <ele>199.798</ele>
        <time>2011-10-22T16:14:09Z</time>
      </trkpt>
      <trkpt lat="45.83189" lon="4.86522">
        <ele>198.626</ele>
        <time>2011-10-22T16:14:10Z</time>
      </trkpt>
      <trkpt lat="45.83215" lon="4.86473">
        <ele>196.648</ele>
        <time>2011-10-22T16:14:16Z</time>
      </trkpt>
      <trkpt lat="45.83227" lon="4.86411">
        <ele>192.542</ele>
        <time>2011-10-22T16:14:22Z</time>
      </trkpt>
      <trkpt lat="45.83232" lon="4.86344">
        <ele>191.198</ele>
        <time>2011-10-22T16:14:28Z</time>
      </trkpt>
      <trkpt lat="45.83234" lon="4.86311">
        <ele>190.541</ele>
        <time>2011-10-22T16:14:31Z</time>
      </trkpt>
      <trkpt lat="45.83235" lon="4.86287">
        <ele>189.95</ele>
        <time>2011-10-22T16:14:33Z</time>
      </trkpt>
      <trkpt lat="45.83236" lon="4.86254">
        <ele>188.973</ele>
        <time>2011-10-22T16:14:36Z</time>
      </trkpt>
      <trkpt lat="45.83235" lon="4.86102">
        <ele>186.476</ele>
        <time>2011-10-22T16:14:49Z</time>
      </trkpt>
      <trkpt lat="45.8323" lon="4.86044">
        <ele>188.461</ele>
        <time>2011-10-22T16:14:54Z</time>
      </trkpt>
      <trkpt lat="45.83223" lon="4.85952">
        <ele>188.301</ele>
        <time>2011-10-22T16:15:02Z</time>
      </trkpt>
      <trkpt lat="45.8321" lon="4.85849">
        <ele>187.409</ele>
        <time>2011-10-22T16:15:11Z</time>
      </trkpt>
      <trkpt lat="45.83206" lon="4.85815">
        <ele>187.629</ele>
        <time>2011-10-22T16:15:14Z</time>
      </trkpt>
      <trkpt lat="45.83195" lon="4.85776">
        <ele>187.847</ele>
        <time>2011-10-22T16:15:18Z</time>
      </trkpt>
      <trkpt lat="45.83174" lon="4.85697">
        <ele>187.218</ele>
        <time>2011-10-22T16:15:27Z</time>
      </trkpt>
      <trkpt lat="45.8316" lon="4.85644">
        <ele>187.961</ele>
        <time>2011-10-22T16:15:37Z</time>
      </trkpt>
      <trkpt lat="45.83168" lon="4.85602">
        <ele>185.395</ele>
        <time>2011-10-22T16:15:45Z</time>
      </trkpt>
      <trkpt lat="45.83169" lon="4.856">
        <ele>184.402</ele>
        <time>2011-10-22T16:15:49Z</time>
      </trkpt>
      <trkpt lat="45.8317" lon="4.85584">
        <ele>184.395</ele>
        <time>2011-10-22T16:15:53Z</time>
      </trkpt>
      <trkpt lat="45.8318" lon="4.85532">
        <ele>180.566</ele>
        <time>2011-10-22T16:16:00Z</time>
      </trkpt>
      <trkpt lat="45.83206" lon="4.85435">
        <ele>175.287</ele>
        <time>2011-10-22T16:16:09Z</time>
      </trkpt>
      <trkpt lat="45.83243" lon="4.85298">
        <ele>171.059</ele>
        <time>2011-10-22T16:16:20Z</time>
      </trkpt>
      <trkpt lat="45.83272" lon="4.85198">
        <ele>170.467</ele>
        <time>2011-10-22T16:16:29Z</time>
      </trkpt>
      <trkpt lat="45.833" lon="4.85109">
        <ele>167.594</ele>
        <time>2011-10-22T16:16:38Z</time>
      </trkpt>
      <trkpt lat="45.83328" lon="4.85036">
        <ele>166.951</ele>
        <time>2011-10-22T16:16:46Z</time>
      </trkpt>
      <trkpt lat="45.8334" lon="4.8501">
        <ele>164.907</ele>
        <time>2011-10-22T16:16:52Z</time>
      </trkpt>
      <trkpt lat="45.83336" lon="4.85003">
        <ele>163.947</ele>
        <time>2011-10-22T16:16:55Z</time>
      </trkpt>
      <trkpt lat="45.83286" lon="4.84958">
        <ele>162.988</ele>
        <time>2011-10-22T16:17:06Z</time>
      </trkpt>
      <trkpt lat="45.83272" lon="4.84932">
        <ele>163.257</ele>
        <time>2011-10-22T16:17:12Z</time>
      </trkpt>
      <trkpt lat="45.83262" lon="4.84937">
        <ele>167.797</ele>
        <time>2011-10-22T16:17:18Z</time>
      </trkpt>
      <trkpt lat="45.83261" lon="4.84936">
        <ele>168.302</ele>
        <time>2011-10-22T16:17:26Z</time>
      </trkpt>
    </trkseg>
  </trk>
</gpx>